sensor_id;sensor_type;location;lat;lon;timestamp;P1;durP1;ratioP1;P2;durP2;ratioP2
6388;SDS011;3227;42.654;23.360;2022-12-07T00:00:18;39.50;;;22.10;;
6388;SDS011;3227;42.654;23.360;2022-12-07T00:02:45;32.13;;;19.33;;
6388;SDS011;3227;42.654;23.360;2022-12-07T00:05:12;35.77;;;19.93;;
6388;SDS011;3227;42.654;23.360;2022-12-07T00:07:40;36.33;;;20.17;;
6388;SDS011;3227;42.654;23.360;2022-12-07T00:10:07;41.63;;;23.73;;
6388;SDS011;3227;42.654;23.360;2022-12-07T00:12:34;53.80;;;26.93;;
6388;SDS011;3227;42.654;23.360;2022-12-07T00:15:01;43.53;;;26.40;;
6388;SDS011;3227;42.654;23.360;2022-12-07T00:17:28;42.93;;;25.10;;
6388;SDS011;3227;42.654;23.360;2022-12-07T00:19:55;45.70;;;25.10;;
6388;SDS011;3227;42.654;23.360;2022-12-07T00:22:22;38.90;;;23.57;;
6388;SDS011;3227;42.654;23.360;2022-12-07T00:24:50;45.17;;;24.03;;
6388;SDS011;3227;42.654;23.360;2022-12-07T00:27:16;41.70;;;25.60;;
6388;SDS011;3227;42.654;23.360;2022-12-07T00:29:43;42.80;;;27.23;;
6388;SDS011;3227;42.654;23.360;2022-12-07T00:32:10;52.70;;;27.93;;
6388;SDS011;3227;42.654;23.360;2022-12-07T00:34:37;53.33;;;27.43;;
6388;SDS011;3227;42.654;23.360;2022-12-07T00:37:04;48.40;;;27.73;;
6388;SDS011;3227;42.654;23.360;2022-12-07T00:39:30;40.77;;;24.20;;
6388;SDS011;3227;42.654;23.360;2022-12-07T00:41:59;43.93;;;25.03;;
6388;SDS011;3227;42.654;23.360;2022-12-07T00:44:25;56.03;;;26.37;;
6388;SDS011;3227;42.654;23.360;2022-12-07T00:46:52;47.23;;;26.20;;
6388;SDS011;3227;42.654;23.360;2022-12-07T00:49:20;46.43;;;26.77;;
6388;SDS011;3227;42.654;23.360;2022-12-07T00:51:47;48.13;;;26.37;;
6388;SDS011;3227;42.654;23.360;2022-12-07T00:54:14;40.63;;;24.30;;
6388;SDS011;3227;42.654;23.360;2022-12-07T00:56:41;42.67;;;25.97;;
6388;SDS011;3227;42.654;23.360;2022-12-07T00:59:11;46.77;;;25.13;;
6388;SDS011;3227;42.654;23.360;2022-12-07T01:01:40;44.57;;;26.43;;
6388;SDS011;3227;42.654;23.360;2022-12-07T01:04:07;49.70;;;25.23;;
6388;SDS011;3227;42.654;23.360;2022-12-07T01:06:39;47.30;;;25.50;;
6388;SDS011;3227;42.654;23.360;2022-12-07T01:09:06;42.33;;;25.10;;
6388;SDS011;3227;42.654;23.360;2022-12-07T01:11:33;41.63;;;23.23;;
6388;SDS011;3227;42.654;23.360;2022-12-07T01:14:00;46.23;;;25.17;;
6388;SDS011;3227;42.654;23.360;2022-12-07T01:16:29;46.37;;;26.00;;
6388;SDS011;3227;42.654;23.360;2022-12-07T01:18:57;50.57;;;27.20;;
6388;SDS011;3227;42.654;23.360;2022-12-07T01:21:26;46.93;;;26.33;;
6388;SDS011;3227;42.654;23.360;2022-12-07T01:23:56;51.97;;;27.73;;
6388;SDS011;3227;42.654;23.360;2022-12-07T01:26:24;50.40;;;27.40;;
6388;SDS011;3227;42.654;23.360;2022-12-07T01:28:51;50.47;;;27.00;;
6388;SDS011;3227;42.654;23.360;2022-12-07T01:31:20;50.83;;;27.27;;
6388;SDS011;3227;42.654;23.360;2022-12-07T01:33:50;55.63;;;25.77;;
6388;SDS011;3227;42.654;23.360;2022-12-07T01:36:20;53.47;;;27.23;;
6388;SDS011;3227;42.654;23.360;2022-12-07T01:38:49;55.70;;;26.67;;
6388;SDS011;3227;42.654;23.360;2022-12-07T01:41:17;43.23;;;24.87;;
6388;SDS011;3227;42.654;23.360;2022-12-07T01:46:39;41.20;;;25.07;;
6388;SDS011;3227;42.654;23.360;2022-12-07T01:49:09;42.47;;;25.57;;
6388;SDS011;3227;42.654;23.360;2022-12-07T01:51:39;48.00;;;29.53;;
6388;SDS011;3227;42.654;23.360;2022-12-07T01:54:08;48.57;;;28.53;;
6388;SDS011;3227;42.654;23.360;2022-12-07T01:56:37;50.90;;;29.50;;
6388;SDS011;3227;42.654;23.360;2022-12-07T01:59:06;50.70;;;31.43;;
6388;SDS011;3227;42.654;23.360;2022-12-07T02:01:32;53.27;;;31.20;;
6388;SDS011;3227;42.654;23.360;2022-12-07T02:03:59;50.17;;;30.80;;
6388;SDS011;3227;42.654;23.360;2022-12-07T02:06:28;54.43;;;30.87;;
6388;SDS011;3227;42.654;23.360;2022-12-07T02:08:56;54.10;;;31.17;;
6388;SDS011;3227;42.654;23.360;2022-12-07T02:11:22;53.93;;;31.67;;
6388;SDS011;3227;42.654;23.360;2022-12-07T02:13:49;52.30;;;30.67;;
6388;SDS011;3227;42.654;23.360;2022-12-07T02:16:21;59.43;;;31.37;;
6388;SDS011;3227;42.654;23.360;2022-12-07T02:18:57;47.93;;;30.20;;
6388;SDS011;3227;42.654;23.360;2022-12-07T02:21:36;50.97;;;29.70;;
6388;SDS011;3227;42.654;23.360;2022-12-07T02:24:14;57.50;;;31.33;;
6388;SDS011;3227;42.654;23.360;2022-12-07T02:27:04;49.97;;;29.60;;
6388;SDS011;3227;42.654;23.360;2022-12-07T02:30:02;49.67;;;28.90;;
6388;SDS011;3227;42.654;23.360;2022-12-07T02:32:33;46.43;;;27.53;;
6388;SDS011;3227;42.654;23.360;2022-12-07T02:35:09;52.83;;;29.47;;
6388;SDS011;3227;42.654;23.360;2022-12-07T02:37:42;52.23;;;29.23;;
6388;SDS011;3227;42.654;23.360;2022-12-07T02:40:17;49.13;;;28.87;;
6388;SDS011;3227;42.654;23.360;2022-12-07T02:42:49;52.67;;;28.90;;
6388;SDS011;3227;42.654;23.360;2022-12-07T02:45:22;49.50;;;29.33;;
6388;SDS011;3227;42.654;23.360;2022-12-07T02:47:55;51.03;;;29.10;;
6388;SDS011;3227;42.654;23.360;2022-12-07T02:50:25;44.40;;;28.17;;
6388;SDS011;3227;42.654;23.360;2022-12-07T02:52:53;46.77;;;27.47;;
6388;SDS011;3227;42.654;23.360;2022-12-07T02:55:20;49.87;;;29.07;;
6388;SDS011;3227;42.654;23.360;2022-12-07T02:57:54;43.50;;;28.13;;
6388;SDS011;3227;42.654;23.360;2022-12-07T03:00:34;45.90;;;26.90;;
6388;SDS011;3227;42.654;23.360;2022-12-07T03:03:09;47.23;;;27.47;;
6388;SDS011;3227;42.654;23.360;2022-12-07T03:05:49;48.03;;;27.50;;
6388;SDS011;3227;42.654;23.360;2022-12-07T03:08:29;43.03;;;26.83;;
6388;SDS011;3227;42.654;23.360;2022-12-07T03:11:04;50.17;;;27.70;;
6388;SDS011;3227;42.654;23.360;2022-12-07T03:13:34;45.10;;;28.23;;
6388;SDS011;3227;42.654;23.360;2022-12-07T03:16:10;54.50;;;27.47;;
6388;SDS011;3227;42.654;23.360;2022-12-07T03:18:44;48.50;;;27.33;;
6388;SDS011;3227;42.654;23.360;2022-12-07T03:21:15;52.63;;;27.73;;
6388;SDS011;3227;42.654;23.360;2022-12-07T03:23:46;57.77;;;27.33;;
6388;SDS011;3227;42.654;23.360;2022-12-07T03:26:16;57.13;;;29.03;;
6388;SDS011;3227;42.654;23.360;2022-12-07T03:28:47;47.67;;;27.53;;
6388;SDS011;3227;42.654;23.360;2022-12-07T03:31:20;48.80;;;27.53;;
6388;SDS011;3227;42.654;23.360;2022-12-07T03:33:51;46.67;;;27.00;;
6388;SDS011;3227;42.654;23.360;2022-12-07T03:36:25;50.00;;;26.67;;
6388;SDS011;3227;42.654;23.360;2022-12-07T03:38:57;49.20;;;28.17;;
6388;SDS011;3227;42.654;23.360;2022-12-07T03:41:29;45.70;;;26.83;;
6388;SDS011;3227;42.654;23.360;2022-12-07T03:43:59;46.13;;;26.87;;
6388;SDS011;3227;42.654;23.360;2022-12-07T03:46:29;46.63;;;26.53;;
6388;SDS011;3227;42.654;23.360;2022-12-07T03:49:05;47.27;;;27.13;;
6388;SDS011;3227;42.654;23.360;2022-12-07T03:51:39;50.67;;;27.77;;
6388;SDS011;3227;42.654;23.360;2022-12-07T03:54:13;43.83;;;26.47;;
6388;SDS011;3227;42.654;23.360;2022-12-07T03:56:44;52.07;;;26.93;;
6388;SDS011;3227;42.654;23.360;2022-12-07T03:59:14;47.13;;;27.20;;
6388;SDS011;3227;42.654;23.360;2022-12-07T04:01:44;47.47;;;27.37;;
6388;SDS011;3227;42.654;23.360;2022-12-07T04:04:17;47.27;;;26.93;;
6388;SDS011;3227;42.654;23.360;2022-12-07T04:06:44;47.17;;;25.07;;
6388;SDS011;3227;42.654;23.360;2022-12-07T04:09:11;46.33;;;26.27;;
6388;SDS011;3227;42.654;23.360;2022-12-07T04:11:39;49.43;;;26.50;;
6388;SDS011;3227;42.654;23.360;2022-12-07T04:14:06;50.57;;;26.63;;
6388;SDS011;3227;42.654;23.360;2022-12-07T04:16:49;45.87;;;26.97;;
6388;SDS011;3227;42.654;23.360;2022-12-07T04:19:17;44.50;;;26.40;;
6388;SDS011;3227;42.654;23.360;2022-12-07T04:21:46;46.00;;;27.10;;
6388;SDS011;3227;42.654;23.360;2022-12-07T04:24:13;44.53;;;27.33;;
6388;SDS011;3227;42.654;23.360;2022-12-07T04:26:41;48.70;;;28.30;;
6388;SDS011;3227;42.654;23.360;2022-12-07T04:29:08;50.00;;;28.20;;
6388;SDS011;3227;42.654;23.360;2022-12-07T04:31:35;54.20;;;28.13;;
6388;SDS011;3227;42.654;23.360;2022-12-07T04:34:04;46.67;;;27.83;;
6388;SDS011;3227;42.654;23.360;2022-12-07T04:36:32;47.30;;;27.20;;
6388;SDS011;3227;42.654;23.360;2022-12-07T04:38:59;52.63;;;28.10;;
6388;SDS011;3227;42.654;23.360;2022-12-07T04:41:26;50.30;;;27.50;;
6388;SDS011;3227;42.654;23.360;2022-12-07T04:43:54;50.47;;;26.93;;
6388;SDS011;3227;42.654;23.360;2022-12-07T04:46:21;50.50;;;27.77;;
6388;SDS011;3227;42.654;23.360;2022-12-07T04:48:49;46.47;;;26.63;;
6388;SDS011;3227;42.654;23.360;2022-12-07T04:51:18;49.17;;;28.30;;
6388;SDS011;3227;42.654;23.360;2022-12-07T04:53:47;48.33;;;27.90;;
6388;SDS011;3227;42.654;23.360;2022-12-07T04:56:19;54.20;;;28.87;;
6388;SDS011;3227;42.654;23.360;2022-12-07T04:58:47;47.33;;;27.80;;
6388;SDS011;3227;42.654;23.360;2022-12-07T05:01:15;48.97;;;27.63;;
6388;SDS011;3227;42.654;23.360;2022-12-07T05:03:42;50.80;;;27.47;;
6388;SDS011;3227;42.654;23.360;2022-12-07T05:06:10;46.57;;;27.13;;
6388;SDS011;3227;42.654;23.360;2022-12-07T05:08:39;52.90;;;28.27;;
6388;SDS011;3227;42.654;23.360;2022-12-07T05:11:07;45.70;;;27.13;;
6388;SDS011;3227;42.654;23.360;2022-12-07T05:13:35;50.40;;;27.70;;
6388;SDS011;3227;42.654;23.360;2022-12-07T05:16:02;48.03;;;27.77;;
6388;SDS011;3227;42.654;23.360;2022-12-07T05:18:29;52.33;;;28.17;;
6388;SDS011;3227;42.654;23.360;2022-12-07T05:20:56;48.80;;;28.93;;
6388;SDS011;3227;42.654;23.360;2022-12-07T05:23:23;51.63;;;27.63;;
6388;SDS011;3227;42.654;23.360;2022-12-07T05:25:51;42.93;;;24.43;;
6388;SDS011;3227;42.654;23.360;2022-12-07T05:28:18;40.87;;;23.70;;
6388;SDS011;3227;42.654;23.360;2022-12-07T05:30:45;41.73;;;23.30;;
6388;SDS011;3227;42.654;23.360;2022-12-07T05:33:12;52.07;;;25.47;;
6388;SDS011;3227;42.654;23.360;2022-12-07T05:35:38;46.57;;;24.83;;
6388;SDS011;3227;42.654;23.360;2022-12-07T05:38:05;54.03;;;26.50;;
6388;SDS011;3227;42.654;23.360;2022-12-07T05:40:32;49.60;;;26.10;;
6388;SDS011;3227;42.654;23.360;2022-12-07T05:43:00;47.30;;;25.30;;
6388;SDS011;3227;42.654;23.360;2022-12-07T05:45:26;45.33;;;25.00;;
6388;SDS011;3227;42.654;23.360;2022-12-07T05:47:53;51.83;;;26.67;;
6388;SDS011;3227;42.654;23.360;2022-12-07T05:50:20;55.97;;;27.37;;
6388;SDS011;3227;42.654;23.360;2022-12-07T05:52:46;50.90;;;27.37;;
6388;SDS011;3227;42.654;23.360;2022-12-07T05:55:13;54.00;;;26.27;;
6388;SDS011;3227;42.654;23.360;2022-12-07T05:57:40;52.40;;;29.83;;
6388;SDS011;3227;42.654;23.360;2022-12-07T06:00:29;45.63;;;25.53;;
6388;SDS011;3227;42.654;23.360;2022-12-07T06:02:55;55.30;;;26.57;;
6388;SDS011;3227;42.654;23.360;2022-12-07T06:05:22;49.40;;;29.00;;
6388;SDS011;3227;42.654;23.360;2022-12-07T06:07:48;49.10;;;26.63;;
6388;SDS011;3227;42.654;23.360;2022-12-07T06:10:15;46.27;;;26.33;;
6388;SDS011;3227;42.654;23.360;2022-12-07T06:12:42;43.93;;;25.37;;
6388;SDS011;3227;42.654;23.360;2022-12-07T06:15:10;41.87;;;25.03;;
6388;SDS011;3227;42.654;23.360;2022-12-07T06:17:39;44.77;;;24.23;;
6388;SDS011;3227;42.654;23.360;2022-12-07T06:20:06;42.83;;;25.03;;
6388;SDS011;3227;42.654;23.360;2022-12-07T06:22:34;40.23;;;23.23;;
6388;SDS011;3227;42.654;23.360;2022-12-07T06:25:01;50.73;;;24.57;;
6388;SDS011;3227;42.654;23.360;2022-12-07T06:27:39;48.00;;;25.40;;
6388;SDS011;3227;42.654;23.360;2022-12-07T06:30:06;41.27;;;24.13;;
6388;SDS011;3227;42.654;23.360;2022-12-07T06:32:33;51.87;;;26.13;;
6388;SDS011;3227;42.654;23.360;2022-12-07T06:35:02;62.33;;;27.17;;
6388;SDS011;3227;42.654;23.360;2022-12-07T06:37:29;46.73;;;25.67;;
6388;SDS011;3227;42.654;23.360;2022-12-07T06:39:56;50.07;;;25.47;;
6388;SDS011;3227;42.654;23.360;2022-12-07T06:42:22;55.43;;;27.23;;
6388;SDS011;3227;42.654;23.360;2022-12-07T06:44:49;53.20;;;32.37;;
6388;SDS011;3227;42.654;23.360;2022-12-07T06:47:16;67.53;;;35.90;;
6388;SDS011;3227;42.654;23.360;2022-12-07T06:49:43;59.03;;;36.03;;
6388;SDS011;3227;42.654;23.360;2022-12-07T06:52:11;60.13;;;33.67;;
6388;SDS011;3227;42.654;23.360;2022-12-07T06:54:38;65.07;;;32.90;;
6388;SDS011;3227;42.654;23.360;2022-12-07T06:57:04;54.40;;;29.47;;
6388;SDS011;3227;42.654;23.360;2022-12-07T06:59:31;43.87;;;27.53;;
6388;SDS011;3227;42.654;23.360;2022-12-07T07:01:58;59.33;;;27.97;;
6388;SDS011;3227;42.654;23.360;2022-12-07T07:04:25;52.87;;;28.10;;
6388;SDS011;3227;42.654;23.360;2022-12-07T07:06:52;48.80;;;27.77;;
6388;SDS011;3227;42.654;23.360;2022-12-07T07:09:20;50.37;;;27.73;;
6388;SDS011;3227;42.654;23.360;2022-12-07T07:11:46;51.00;;;26.83;;
6388;SDS011;3227;42.654;23.360;2022-12-07T07:14:13;44.87;;;25.40;;
6388;SDS011;3227;42.654;23.360;2022-12-07T07:16:44;53.63;;;26.90;;
6388;SDS011;3227;42.654;23.360;2022-12-07T07:19:10;54.90;;;25.40;;
6388;SDS011;3227;42.654;23.360;2022-12-07T07:21:37;43.90;;;24.43;;
6388;SDS011;3227;42.654;23.360;2022-12-07T07:24:04;55.90;;;26.00;;
6388;SDS011;3227;42.654;23.360;2022-12-07T07:26:33;44.67;;;23.20;;
6388;SDS011;3227;42.654;23.360;2022-12-07T07:29:00;35.90;;;20.33;;
6388;SDS011;3227;42.654;23.360;2022-12-07T07:31:27;43.47;;;22.10;;
6388;SDS011;3227;42.654;23.360;2022-12-07T07:33:53;43.97;;;22.53;;
6388;SDS011;3227;42.654;23.360;2022-12-07T07:36:20;45.40;;;22.80;;
6388;SDS011;3227;42.654;23.360;2022-12-07T07:38:47;42.47;;;22.50;;
6388;SDS011;3227;42.654;23.360;2022-12-07T07:41:14;49.93;;;24.37;;
6388;SDS011;3227;42.654;23.360;2022-12-07T07:43:42;45.20;;;23.33;;
6388;SDS011;3227;42.654;23.360;2022-12-07T07:46:09;49.20;;;23.83;;
6388;SDS011;3227;42.654;23.360;2022-12-07T07:48:35;39.80;;;24.27;;
6388;SDS011;3227;42.654;23.360;2022-12-07T07:51:04;44.63;;;23.57;;
6388;SDS011;3227;42.654;23.360;2022-12-07T07:53:32;43.60;;;23.43;;
6388;SDS011;3227;42.654;23.360;2022-12-07T07:55:59;47.30;;;25.77;;
6388;SDS011;3227;42.654;23.360;2022-12-07T07:58:25;48.90;;;24.73;;
6388;SDS011;3227;42.654;23.360;2022-12-07T08:00:55;49.63;;;23.93;;
6388;SDS011;3227;42.654;23.360;2022-12-07T08:03:22;42.60;;;24.80;;
6388;SDS011;3227;42.654;23.360;2022-12-07T08:05:48;41.67;;;23.50;;
6388;SDS011;3227;42.654;23.360;2022-12-07T08:08:15;40.73;;;24.17;;
6388;SDS011;3227;42.654;23.360;2022-12-07T08:10:42;45.77;;;24.60;;
6388;SDS011;3227;42.654;23.360;2022-12-07T08:13:09;43.43;;;24.63;;
6388;SDS011;3227;42.654;23.360;2022-12-07T08:15:40;39.67;;;23.67;;
6388;SDS011;3227;42.654;23.360;2022-12-07T08:18:19;44.73;;;23.40;;
6388;SDS011;3227;42.654;23.360;2022-12-07T08:20:45;41.93;;;25.30;;
6388;SDS011;3227;42.654;23.360;2022-12-07T08:23:12;40.70;;;24.33;;
6388;SDS011;3227;42.654;23.360;2022-12-07T08:25:39;44.53;;;24.70;;
6388;SDS011;3227;42.654;23.360;2022-12-07T08:28:06;38.33;;;23.77;;
6388;SDS011;3227;42.654;23.360;2022-12-07T08:30:33;40.17;;;24.10;;
6388;SDS011;3227;42.654;23.360;2022-12-07T08:33:00;43.97;;;23.77;;
6388;SDS011;3227;42.654;23.360;2022-12-07T08:35:28;45.20;;;24.00;;
6388;SDS011;3227;42.654;23.360;2022-12-07T08:37:55;41.10;;;24.30;;
6388;SDS011;3227;42.654;23.360;2022-12-07T08:40:23;50.40;;;25.17;;
6388;SDS011;3227;42.654;23.360;2022-12-07T08:42:49;48.23;;;24.80;;
6388;SDS011;3227;42.654;23.360;2022-12-07T08:45:17;46.67;;;24.87;;
6388;SDS011;3227;42.654;23.360;2022-12-07T08:47:46;44.10;;;24.13;;
6388;SDS011;3227;42.654;23.360;2022-12-07T08:50:17;44.63;;;25.00;;
6388;SDS011;3227;42.654;23.360;2022-12-07T08:52:45;42.63;;;25.10;;
6388;SDS011;3227;42.654;23.360;2022-12-07T08:55:15;47.20;;;25.20;;
6388;SDS011;3227;42.654;23.360;2022-12-07T08:57:42;46.50;;;24.60;;
6388;SDS011;3227;42.654;23.360;2022-12-07T09:00:10;45.43;;;24.90;;
6388;SDS011;3227;42.654;23.360;2022-12-07T09:02:38;50.70;;;24.87;;
6388;SDS011;3227;42.654;23.360;2022-12-07T09:05:05;44.17;;;24.67;;
6388;SDS011;3227;42.654;23.360;2022-12-07T09:07:32;52.93;;;25.43;;
6388;SDS011;3227;42.654;23.360;2022-12-07T09:10:02;47.93;;;25.80;;
6388;SDS011;3227;42.654;23.360;2022-12-07T09:12:29;54.20;;;25.83;;
6388;SDS011;3227;42.654;23.360;2022-12-07T09:14:56;49.03;;;24.63;;
6388;SDS011;3227;42.654;23.360;2022-12-07T09:17:23;39.60;;;23.73;;
6388;SDS011;3227;42.654;23.360;2022-12-07T09:19:50;46.87;;;24.20;;
6388;SDS011;3227;42.654;23.360;2022-12-07T09:22:16;49.00;;;23.80;;
6388;SDS011;3227;42.654;23.360;2022-12-07T09:24:43;45.90;;;23.33;;
6388;SDS011;3227;42.654;23.360;2022-12-07T09:27:12;43.37;;;24.37;;
6388;SDS011;3227;42.654;23.360;2022-12-07T09:29:39;45.87;;;23.67;;
6388;SDS011;3227;42.654;23.360;2022-12-07T09:32:05;41.80;;;24.07;;
6388;SDS011;3227;42.654;23.360;2022-12-07T09:34:32;42.43;;;24.63;;
6388;SDS011;3227;42.654;23.360;2022-12-07T09:37:00;39.30;;;24.03;;
6388;SDS011;3227;42.654;23.360;2022-12-07T09:39:29;47.27;;;24.63;;
6388;SDS011;3227;42.654;23.360;2022-12-07T09:41:56;47.57;;;23.83;;
6388;SDS011;3227;42.654;23.360;2022-12-07T09:44:25;43.57;;;23.97;;
6388;SDS011;3227;42.654;23.360;2022-12-07T09:46:53;47.73;;;24.93;;
6388;SDS011;3227;42.654;23.360;2022-12-07T09:49:22;41.50;;;23.93;;
6388;SDS011;3227;42.654;23.360;2022-12-07T09:51:59;45.63;;;24.07;;
6388;SDS011;3227;42.654;23.360;2022-12-07T09:54:27;43.13;;;24.20;;
6388;SDS011;3227;42.654;23.360;2022-12-07T09:56:56;48.13;;;25.90;;
6388;SDS011;3227;42.654;23.360;2022-12-07T09:59:24;46.43;;;24.60;;
6388;SDS011;3227;42.654;23.360;2022-12-07T10:01:51;47.33;;;26.77;;
6388;SDS011;3227;42.654;23.360;2022-12-07T10:04:19;43.03;;;25.43;;
6388;SDS011;3227;42.654;23.360;2022-12-07T10:06:47;56.00;;;27.20;;
6388;SDS011;3227;42.654;23.360;2022-12-07T10:09:17;46.87;;;24.93;;
6388;SDS011;3227;42.654;23.360;2022-12-07T10:12:01;43.70;;;25.03;;
6388;SDS011;3227;42.654;23.360;2022-12-07T10:14:31;44.37;;;24.80;;
6388;SDS011;3227;42.654;23.360;2022-12-07T10:17:00;43.27;;;24.80;;
6388;SDS011;3227;42.654;23.360;2022-12-07T10:19:28;46.57;;;25.87;;
6388;SDS011;3227;42.654;23.360;2022-12-07T10:22:01;46.50;;;26.13;;
6388;SDS011;3227;42.654;23.360;2022-12-07T10:24:30;42.53;;;25.63;;
6388;SDS011;3227;42.654;23.360;2022-12-07T10:26:57;49.20;;;26.30;;
6388;SDS011;3227;42.654;23.360;2022-12-07T10:29:26;46.50;;;25.50;;
6388;SDS011;3227;42.654;23.360;2022-12-07T10:31:58;49.00;;;28.38;;
6388;SDS011;3227;42.654;23.360;2022-12-07T10:34:27;44.57;;;25.27;;
6388;SDS011;3227;42.654;23.360;2022-12-07T10:37:06;52.33;;;24.83;;
6388;SDS011;3227;42.654;23.360;2022-12-07T10:39:40;46.07;;;25.43;;
6388;SDS011;3227;42.654;23.360;2022-12-07T10:42:15;45.40;;;23.17;;
6388;SDS011;3227;42.654;23.360;2022-12-07T10:44:43;41.30;;;23.50;;
6388;SDS011;3227;42.654;23.360;2022-12-07T10:50:13;38.00;;;21.47;;
6388;SDS011;3227;42.654;23.360;2022-12-07T10:52:56;46.97;;;21.93;;
6388;SDS011;3227;42.654;23.360;2022-12-07T10:55:37;43.73;;;22.30;;
6388;SDS011;3227;42.654;23.360;2022-12-07T10:58:24;45.53;;;22.83;;
6388;SDS011;3227;42.654;23.360;2022-12-07T11:01:00;45.23;;;21.93;;
6388;SDS011;3227;42.654;23.360;2022-12-07T11:03:38;40.80;;;21.37;;
6388;SDS011;3227;42.654;23.360;2022-12-07T11:06:15;45.20;;;22.50;;
6388;SDS011;3227;42.654;23.360;2022-12-07T11:08:56;47.70;;;22.93;;
6388;SDS011;3227;42.654;23.360;2022-12-07T11:11:30;40.90;;;21.70;;
6388;SDS011;3227;42.654;23.360;2022-12-07T11:14:03;38.47;;;21.07;;
6388;SDS011;3227;42.654;23.360;2022-12-07T11:16:41;39.20;;;18.40;;
6388;SDS011;3227;42.654;23.360;2022-12-07T11:19:21;35.77;;;18.80;;
6388;SDS011;3227;42.654;23.360;2022-12-07T11:22:16;30.17;;;17.07;;
6388;SDS011;3227;42.654;23.360;2022-12-07T11:24:49;35.40;;;17.70;;
6388;SDS011;3227;42.654;23.360;2022-12-07T11:27:28;40.63;;;17.83;;
6388;SDS011;3227;42.654;23.360;2022-12-07T11:30:08;33.20;;;17.67;;
6388;SDS011;3227;42.654;23.360;2022-12-07T11:35:46;31.90;;;17.63;;
6388;SDS011;3227;42.654;23.360;2022-12-07T11:38:26;34.83;;;18.90;;
6388;SDS011;3227;42.654;23.360;2022-12-07T11:41:01;34.40;;;18.37;;
6388;SDS011;3227;42.654;23.360;2022-12-07T11:43:41;39.50;;;18.63;;
6388;SDS011;3227;42.654;23.360;2022-12-07T11:46:18;34.60;;;17.27;;
6388;SDS011;3227;42.654;23.360;2022-12-07T11:48:50;32.47;;;18.30;;
6388;SDS011;3227;42.654;23.360;2022-12-07T11:51:25;37.87;;;18.67;;
6388;SDS011;3227;42.654;23.360;2022-12-07T11:53:57;30.70;;;17.70;;
6388;SDS011;3227;42.654;23.360;2022-12-07T11:56:34;39.87;;;18.73;;
6388;SDS011;3227;42.654;23.360;2022-12-07T11:59:04;42.63;;;20.57;;
6388;SDS011;3227;42.654;23.360;2022-12-07T12:01:44;40.83;;;19.80;;
6388;SDS011;3227;42.654;23.360;2022-12-07T12:04:20;38.00;;;20.93;;
6388;SDS011;3227;42.654;23.360;2022-12-07T12:06:56;40.30;;;20.10;;
6388;SDS011;3227;42.654;23.360;2022-12-07T12:09:24;36.97;;;20.60;;
6388;SDS011;3227;42.654;23.360;2022-12-07T12:15:07;40.20;;;20.03;;
6388;SDS011;3227;42.654;23.360;2022-12-07T12:17:54;35.60;;;18.97;;
6388;SDS011;3227;42.654;23.360;2022-12-07T12:20:32;33.23;;;17.70;;
6388;SDS011;3227;42.654;23.360;2022-12-07T12:23:07;33.80;;;17.77;;
6388;SDS011;3227;42.654;23.360;2022-12-07T12:25:40;31.37;;;17.27;;
6388;SDS011;3227;42.654;23.360;2022-12-07T12:28:18;39.47;;;19.07;;
6388;SDS011;3227;42.654;23.360;2022-12-07T12:31:07;38.63;;;18.03;;
6388;SDS011;3227;42.654;23.360;2022-12-07T12:33:37;34.23;;;17.67;;
6388;SDS011;3227;42.654;23.360;2022-12-07T12:36:23;39.97;;;18.93;;
6388;SDS011;3227;42.654;23.360;2022-12-07T12:41:56;32.03;;;17.70;;
6388;SDS011;3227;42.654;23.360;2022-12-07T12:47:39;29.47;;;15.53;;
6388;SDS011;3227;42.654;23.360;2022-12-07T12:50:20;27.77;;;15.90;;
6388;SDS011;3227;42.654;23.360;2022-12-07T12:52:53;26.20;;;15.40;;
6388;SDS011;3227;42.654;23.360;2022-12-07T12:58:33;29.63;;;15.90;;
6388;SDS011;3227;42.654;23.360;2022-12-07T13:04:23;31.47;;;16.10;;
6388;SDS011;3227;42.654;23.360;2022-12-07T13:10:21;26.23;;;15.73;;
6388;SDS011;3227;42.654;23.360;2022-12-07T13:12:59;26.43;;;13.93;;
6388;SDS011;3227;42.654;23.360;2022-12-07T13:15:35;27.40;;;13.80;;
6388;SDS011;3227;42.654;23.360;2022-12-07T13:18:22;25.47;;;15.30;;
6388;SDS011;3227;42.654;23.360;2022-12-07T13:20:54;27.07;;;15.40;;
6388;SDS011;3227;42.654;23.360;2022-12-07T13:23:27;28.33;;;15.00;;
6388;SDS011;3227;42.654;23.360;2022-12-07T13:26:02;27.93;;;14.93;;
6388;SDS011;3227;42.654;23.360;2022-12-07T13:28:36;28.50;;;15.07;;
6388;SDS011;3227;42.654;23.360;2022-12-07T13:31:11;25.57;;;14.33;;
6388;SDS011;3227;42.654;23.360;2022-12-07T13:33:54;32.93;;;15.77;;
6388;SDS011;3227;42.654;23.360;2022-12-07T13:36:22;31.57;;;15.83;;
6388;SDS011;3227;42.654;23.360;2022-12-07T13:38:52;30.93;;;16.43;;
6388;SDS011;3227;42.654;23.360;2022-12-07T13:41:23;30.87;;;15.27;;
6388;SDS011;3227;42.654;23.360;2022-12-07T13:43:52;26.17;;;13.87;;
6388;SDS011;3227;42.654;23.360;2022-12-07T13:46:35;28.37;;;14.83;;
6388;SDS011;3227;42.654;23.360;2022-12-07T13:49:16;31.07;;;15.57;;
6388;SDS011;3227;42.654;23.360;2022-12-07T13:51:46;25.47;;;14.80;;
6388;SDS011;3227;42.654;23.360;2022-12-07T13:54:13;36.87;;;14.80;;
6388;SDS011;3227;42.654;23.360;2022-12-07T13:56:55;30.40;;;15.70;;
6388;SDS011;3227;42.654;23.360;2022-12-07T13:59:22;36.90;;;16.00;;
6388;SDS011;3227;42.654;23.360;2022-12-07T14:01:53;32.63;;;14.93;;
6388;SDS011;3227;42.654;23.360;2022-12-07T14:04:30;28.73;;;15.00;;
6388;SDS011;3227;42.654;23.360;2022-12-07T14:06:58;33.63;;;15.17;;
6388;SDS011;3227;42.654;23.360;2022-12-07T14:09:27;28.33;;;14.30;;
6388;SDS011;3227;42.654;23.360;2022-12-07T14:11:55;29.57;;;15.50;;
6388;SDS011;3227;42.654;23.360;2022-12-07T14:14:24;26.23;;;14.63;;
6388;SDS011;3227;42.654;23.360;2022-12-07T14:16:56;29.70;;;15.73;;
6388;SDS011;3227;42.654;23.360;2022-12-07T14:19:41;32.93;;;16.03;;
6388;SDS011;3227;42.654;23.360;2022-12-07T14:22:22;38.93;;;16.20;;
6388;SDS011;3227;42.654;23.360;2022-12-07T14:24:57;32.87;;;16.33;;
6388;SDS011;3227;42.654;23.360;2022-12-07T14:27:30;33.20;;;14.53;;
6388;SDS011;3227;42.654;23.360;2022-12-07T14:29:59;29.00;;;15.03;;
6388;SDS011;3227;42.654;23.360;2022-12-07T14:32:28;30.37;;;15.73;;
6388;SDS011;3227;42.654;23.360;2022-12-07T14:35:00;31.37;;;14.93;;
6388;SDS011;3227;42.654;23.360;2022-12-07T14:37:28;26.33;;;14.17;;
6388;SDS011;3227;42.654;23.360;2022-12-07T14:39:56;26.83;;;13.53;;
6388;SDS011;3227;42.654;23.360;2022-12-07T14:42:24;29.13;;;14.87;;
6388;SDS011;3227;42.654;23.360;2022-12-07T14:44:54;23.20;;;13.20;;
6388;SDS011;3227;42.654;23.360;2022-12-07T14:47:21;26.07;;;14.87;;
6388;SDS011;3227;42.654;23.360;2022-12-07T14:49:49;34.33;;;15.43;;
6388;SDS011;3227;42.654;23.360;2022-12-07T14:52:17;29.53;;;14.93;;
6388;SDS011;3227;42.654;23.360;2022-12-07T14:54:46;26.67;;;14.50;;
6388;SDS011;3227;42.654;23.360;2022-12-07T14:57:14;30.43;;;15.30;;
6388;SDS011;3227;42.654;23.360;2022-12-07T14:59:40;34.30;;;14.37;;
6388;SDS011;3227;42.654;23.360;2022-12-07T15:02:09;30.13;;;15.87;;
6388;SDS011;3227;42.654;23.360;2022-12-07T15:04:36;31.53;;;14.83;;
6388;SDS011;3227;42.654;23.360;2022-12-07T15:07:05;29.30;;;15.13;;
6388;SDS011;3227;42.654;23.360;2022-12-07T15:09:37;34.53;;;16.60;;
6388;SDS011;3227;42.654;23.360;2022-12-07T15:12:04;44.83;;;20.90;;
6388;SDS011;3227;42.654;23.360;2022-12-07T15:14:31;47.97;;;21.97;;
6388;SDS011;3227;42.654;23.360;2022-12-07T15:16:58;63.17;;;22.80;;
6388;SDS011;3227;42.654;23.360;2022-12-07T15:19:24;60.30;;;23.20;;